createdAt,value
2023-04-30T00:00:42.062Z,10.94
2023-04-30T00:01:41.949Z,10.96
2023-04-30T00:02:41.981Z,10.96
2023-04-30T00:03:41.997Z,10.93
2023-04-30T00:04:41.887Z,10.93
2023-04-30T00:05:41.915Z,10.94
2023-04-30T00:06:41.941Z,10.94
2023-04-30T00:07:41.869Z,10.93
2023-04-30T00:08:41.861Z,10.92
2023-04-30T00:09:41.877Z,10.92
2023-04-30T00:10:41.830Z,10.92
2023-04-30T00:11:41.849Z,10.92
2023-04-30T00:12:41.807Z,10.90
2023-04-30T00:13:41.802Z,10.89
2023-04-30T00:14:41.779Z,10.87
2023-04-30T00:15:41.795Z,10.87
2023-04-30T00:16:41.822Z,10.86
2023-04-30T00:17:41.817Z,10.86
2023-04-30T00:18:41.734Z,10.84
2023-04-30T00:19:41.737Z,10.84
2023-04-30T00:20:41.711Z,10.82
2023-04-30T00:21:41.696Z,10.84
2023-04-30T00:22:41.707Z,10.82
2023-04-30T00:23:41.731Z,10.82
2023-04-30T00:24:41.687Z,10.81
2023-04-30T00:25:41.695Z,10.81
2023-04-30T00:26:41.668Z,10.79
2023-04-30T00:27:41.650Z,10.79
2023-04-30T00:28:41.629Z,10.78
2023-04-30T00:29:41.644Z,10.76
2023-04-30T00:30:41.625Z,10.76
2023-04-30T00:31:41.679Z,10.75
2023-04-30T00:32:41.676Z,10.75
2023-04-30T00:33:41.604Z,10.76
2023-04-30T00:34:41.590Z,10.76
2023-04-30T00:35:41.554Z,10.76
2023-04-30T00:36:41.574Z,10.75
2023-04-30T00:37:41.636Z,10.75
2023-04-30T00:38:41.531Z,10.76
2023-04-30T00:39:41.532Z,10.75
2023-04-30T00:40:41.533Z,10.76
2023-04-30T00:41:41.506Z,10.76
2023-04-30T00:42:41.522Z,10.74
2023-04-30T00:43:41.494Z,10.74
2023-04-30T00:44:41.475Z,10.75
2023-04-30T00:45:41.561Z,10.75
2023-04-30T00:46:41.447Z,10.74
2023-04-30T00:47:41.491Z,10.74
2023-04-30T00:48:41.471Z,10.72
2023-04-30T00:49:41.427Z,10.72
2023-04-30T00:50:41.420Z,10.71
2023-04-30T00:51:41.422Z,10.68
2023-04-30T00:52:41.382Z,10.67
2023-04-30T00:53:41.426Z,10.64
2023-04-30T00:54:41.403Z,10.63
2023-04-30T00:55:41.383Z,10.63
2023-04-30T00:56:41.362Z,10.60
2023-04-30T00:57:41.362Z,10.59
2023-04-30T00:58:41.345Z,10.56
2023-04-30T00:59:41.359Z,10.56
2023-04-30T01:00:41.329Z,10.54
2023-04-30T01:01:41.388Z,10.53
2023-04-30T01:02:41.390Z,10.51
2023-04-30T01:03:41.320Z,10.49
2023-04-30T01:04:41.279Z,10.44
2023-04-30T01:05:41.310Z,10.42
2023-04-30T01:06:41.289Z,10.42
2023-04-30T01:07:41.236Z,10.41
2023-04-30T01:08:41.231Z,10.40
2023-04-30T01:09:41.229Z,10.41
2023-04-30T01:10:41.213Z,10.40
2023-04-30T01:11:41.221Z,10.41
2023-04-30T01:12:41.179Z,10.41
2023-04-30T01:13:41.177Z,10.40
2023-04-30T01:14:41.174Z,10.42
2023-04-30T01:15:41.190Z,10.41
2023-04-30T01:16:41.188Z,10.38
2023-04-30T01:17:41.165Z,10.38
2023-04-30T01:18:41.206Z,10.35
2023-04-30T01:19:41.111Z,10.34
2023-04-30T01:20:41.099Z,10.35
2023-04-30T01:21:41.105Z,10.33
2023-04-30T01:22:41.093Z,10.33
2023-04-30T01:23:41.107Z,10.33
2023-04-30T01:24:41.088Z,10.31
2023-04-30T01:25:41.063Z,10.30
2023-04-30T01:26:41.040Z,10.30
2023-04-30T01:27:41.093Z,10.31
2023-04-30T01:28:41.015Z,10.31
2023-04-30T01:29:41.077Z,10.33
2023-04-30T01:30:41.094Z,10.30
2023-04-30T01:31:41.013Z,10.28
2023-04-30T01:32:41.059Z,10.28
2023-04-30T01:33:41.007Z,10.28
2023-04-30T01:34:40.973Z,10.28
2023-04-30T01:35:41.001Z,10.26
2023-04-30T01:36:40.961Z,10.28
2023-04-30T01:37:40.925Z,10.26
2023-04-30T01:38:40.965Z,10.25
2023-04-30T01:39:40.938Z,10.26
2023-04-30T01:40:40.901Z,10.26
2023-04-30T01:41:40.897Z,10.26
2023-04-30T01:42:40.889Z,10.25
2023-04-30T01:43:40.897Z,10.23
2023-04-30T01:44:40.855Z,10.23
2023-04-30T01:45:40.852Z,10.23
2023-04-30T01:46:40.914Z,10.23
2023-04-30T01:47:40.878Z,10.22
2023-04-30T01:48:40.822Z,10.20
2023-04-30T01:49:40.865Z,10.22
2023-04-30T01:50:40.790Z,10.20
2023-04-30T01:51:47.694Z,10.20
2023-04-30T01:52:40.792Z,10.20
2023-04-30T01:53:40.785Z,10.19
2023-04-30T01:54:40.802Z,10.19
2023-04-30T01:55:40.756Z,10.16
2023-04-30T01:56:40.742Z,10.17
2023-04-30T01:57:40.713Z,10.16
2023-04-30T01:58:40.715Z,10.15
2023-04-30T01:59:40.702Z,10.15
2023-04-30T02:00:40.725Z,10.15
2023-04-30T02:01:40.725Z,10.13
2023-04-30T02:02:40.762Z,10.16
2023-04-30T02:03:40.775Z,10.15
2023-04-30T02:04:40.687Z,10.17
2023-04-30T02:05:40.701Z,10.16
2023-04-30T02:06:40.734Z,10.19
2023-04-30T02:07:40.649Z,10.19
2023-04-30T02:08:40.616Z,10.19
2023-04-30T02:09:40.600Z,10.22
2023-04-30T02:10:40.602Z,10.20
2023-04-30T02:11:40.598Z,10.22
2023-04-30T02:12:40.580Z,10.23
2023-04-30T02:13:40.611Z,10.25
2023-04-30T02:14:40.568Z,10.23
2023-04-30T02:15:40.558Z,10.26
2023-04-30T02:16:40.575Z,10.23
2023-04-30T02:17:40.538Z,10.26
2023-04-30T02:18:40.519Z,10.25
2023-04-30T02:19:40.529Z,10.23
2023-04-30T02:20:40.485Z,10.23
2023-04-30T02:21:40.466Z,10.25
2023-04-30T02:22:40.483Z,10.25
2023-04-30T02:23:40.470Z,10.26
2023-04-30T02:24:40.440Z,10.26
2023-04-30T02:25:40.455Z,10.28
2023-04-30T02:26:40.430Z,10.25
2023-04-30T02:27:40.415Z,10.26
2023-04-30T02:28:40.422Z,10.28
2023-04-30T02:29:40.418Z,10.28
2023-04-30T02:30:40.884Z,10.28
2023-04-30T02:31:40.436Z,10.26
2023-04-30T02:32:40.445Z,10.26
2023-04-30T02:33:40.356Z,10.25
2023-04-30T02:34:40.358Z,10.25
2023-04-30T02:35:40.342Z,10.25
2023-04-30T02:36:40.369Z,10.23
2023-04-30T02:37:40.320Z,10.23
2023-04-30T02:38:40.310Z,10.23
2023-04-30T02:39:40.285Z,10.20
2023-04-30T02:40:40.288Z,10.22
2023-04-30T02:41:40.275Z,10.20
2023-04-30T02:42:40.315Z,10.19
2023-04-30T02:43:40.246Z,10.20
2023-04-30T02:44:40.259Z,10.19
2023-04-30T02:45:40.291Z,10.17
2023-04-30T02:46:40.235Z,10.17
2023-04-30T02:47:40.231Z,10.17
2023-04-30T02:48:40.239Z,10.17
2023-04-30T02:49:40.215Z,10.17
2023-04-30T02:50:40.202Z,10.15
2023-04-30T02:51:40.171Z,10.16
2023-04-30T02:52:40.157Z,10.13
2023-04-30T02:53:40.171Z,10.13
2023-04-30T02:54:40.131Z,10.12
2023-04-30T02:55:40.141Z,10.12
2023-04-30T02:56:40.134Z,10.10
2023-04-30T02:57:40.115Z,10.12
2023-04-30T02:58:40.093Z,10.09
2023-04-30T02:59:40.116Z,10.07
2023-04-30T03:00:40.104Z,10.09
2023-04-30T03:01:40.176Z,10.07
2023-04-30T03:02:40.213Z,10.07
2023-04-30T03:03:40.109Z,10.09
2023-04-30T03:04:40.066Z,10.09
2023-04-30T03:05:40.035Z,10.09
2023-04-30T03:06:40.171Z,10.09
2023-04-30T03:07:40.026Z,10.09
2023-04-30T03:08:40.002Z,10.07
2023-04-30T03:09:40.041Z,10.07
2023-04-30T03:10:39.976Z,10.09
2023-04-30T03:11:39.965Z,10.10
2023-04-30T03:12:39.974Z,10.12
2023-04-30T03:13:39.953Z,10.12
2023-04-30T03:14:39.942Z,10.12
2023-04-30T03:15:39.944Z,10.13
2023-04-30T03:16:39.990Z,10.12
2023-04-30T03:17:40.012Z,10.07
2023-04-30T03:18:39.882Z,10.09
2023-04-30T03:19:39.885Z,10.07
2023-04-30T03:20:39.912Z,10.05
2023-04-30T03:21:39.860Z,10.07
2023-04-30T03:22:39.859Z,10.07
2023-04-30T03:23:39.843Z,10.10
2023-04-30T03:24:39.849Z,10.07
2023-04-30T03:25:39.842Z,10.09
2023-04-30T03:26:39.860Z,10.10
2023-04-30T03:27:39.814Z,10.07
2023-04-30T03:28:39.815Z,10.05
2023-04-30T03:29:39.776Z,10.07
2023-04-30T03:30:39.785Z,10.02
2023-04-30T03:31:39.836Z,10.02
2023-04-30T03:32:39.825Z,10.04
2023-04-30T03:33:39.839Z,10.02
2023-04-30T03:34:39.735Z,10.04
2023-04-30T03:35:39.721Z,10.02
2023-04-30T03:36:39.720Z,10.01
2023-04-30T03:37:39.695Z,9.98
2023-04-30T03:38:39.724Z,9.98
2023-04-30T03:39:39.699Z,9.97
2023-04-30T03:40:39.681Z,9.92
2023-04-30T03:41:39.655Z,9.92
2023-04-30T03:42:39.685Z,9.91
2023-04-30T03:43:39.648Z,9.87
2023-04-30T03:44:39.661Z,9.87
2023-04-30T03:45:39.617Z,9.86
2023-04-30T03:46:39.644Z,9.83
2023-04-30T03:47:39.640Z,9.83
2023-04-30T03:48:39.607Z,9.82
2023-04-30T03:49:39.598Z,9.80
2023-04-30T03:50:39.638Z,9.77
2023-04-30T03:51:39.570Z,9.79
2023-04-30T03:52:39.578Z,9.77
2023-04-30T03:53:39.545Z,9.76
2023-04-30T03:54:39.565Z,9.76
2023-04-30T03:55:39.522Z,9.74
2023-04-30T03:56:39.542Z,9.69
2023-04-30T03:57:39.488Z,9.66
2023-04-30T03:58:39.493Z,9.62
2023-04-30T03:59:39.479Z,9.58
2023-04-30T04:00:39.498Z,9.54
2023-04-30T04:01:39.480Z,9.50
2023-04-30T04:02:39.519Z,9.48
2023-04-30T04:03:39.462Z,9.46
2023-04-30T04:04:39.451Z,9.43
2023-04-30T04:05:39.431Z,9.41
2023-04-30T04:06:39.557Z,9.39
2023-04-30T04:07:39.418Z,9.37
2023-04-30T04:08:39.421Z,9.34
2023-04-30T04:09:39.387Z,9.31
2023-04-30T04:10:39.405Z,9.32
2023-04-30T04:11:39.365Z,9.31
2023-04-30T04:12:39.401Z,9.32
2023-04-30T04:13:39.334Z,9.31
2023-04-30T04:14:39.351Z,9.32
2023-04-30T04:15:39.433Z,9.31
2023-04-30T04:16:39.430Z,9.29
2023-04-30T04:17:39.369Z,9.26
2023-04-30T04:18:39.312Z,9.28
2023-04-30T04:19:39.299Z,9.22
2023-04-30T04:20:39.288Z,9.22
2023-04-30T04:21:39.293Z,9.21
2023-04-30T04:22:39.259Z,9.14
2023-04-30T04:23:39.246Z,9.11
2023-04-30T04:24:39.258Z,9.06
2023-04-30T04:25:39.215Z,9.03
2023-04-30T04:26:39.212Z,9.02
2023-04-30T04:27:39.223Z,9.02
2023-04-30T04:28:39.197Z,9.00
2023-04-30T04:29:39.193Z,9.02
2023-04-30T04:30:39.171Z,9.00
2023-04-30T04:31:39.164Z,9.02
2023-04-30T04:32:39.241Z,9.00
2023-04-30T04:33:39.193Z,8.97
2023-04-30T04:34:39.149Z,8.95
2023-04-30T04:35:39.152Z,8.92
2023-04-30T04:36:39.123Z,8.91
2023-04-30T04:37:39.089Z,8.89
2023-04-30T04:38:39.091Z,8.88
2023-04-30T04:39:39.110Z,8.85
2023-04-30T04:40:39.068Z,8.85
2023-04-30T04:41:39.058Z,8.85
2023-04-30T04:42:39.052Z,8.84
2023-04-30T04:43:39.035Z,8.85
2023-04-30T04:44:39.045Z,8.87
2023-04-30T04:45:39.059Z,8.87
2023-04-30T04:46:39.056Z,8.87
2023-04-30T04:47:39.061Z,8.87
2023-04-30T04:48:38.998Z,8.88
2023-04-30T04:49:38.982Z,8.91
2023-04-30T04:50:38.968Z,8.94
2023-04-30T04:51:39.078Z,8.92
2023-04-30T04:52:38.964Z,8.92
2023-04-30T04:53:38.948Z,8.97
2023-04-30T04:54:38.952Z,8.97
2023-04-30T04:55:38.928Z,8.95
2023-04-30T04:56:38.928Z,8.99
2023-04-30T04:57:38.919Z,8.97
2023-04-30T04:58:38.938Z,8.99
2023-04-30T04:59:38.892Z,9.02
2023-04-30T05:00:38.863Z,9.03
2023-04-30T05:01:38.871Z,9.04
2023-04-30T05:02:38.922Z,9.04
2023-04-30T05:03:38.975Z,9.06
2023-04-30T05:04:38.833Z,9.11
2023-04-30T05:05:38.827Z,9.14
2023-04-30T05:06:38.840Z,9.16
2023-04-30T05:07:38.797Z,9.21
2023-04-30T05:08:38.792Z,9.21
2023-04-30T05:09:38.805Z,9.22
2023-04-30T05:10:38.765Z,9.23
2023-04-30T05:11:38.750Z,9.23
2023-04-30T05:12:38.759Z,9.26
2023-04-30T05:13:38.746Z,9.29
2023-04-30T05:14:39.223Z,9.31
2023-04-30T05:15:38.716Z,9.32
2023-04-30T05:16:38.816Z,9.32
2023-04-30T05:17:38.716Z,9.37
2023-04-30T05:18:38.747Z,9.34
2023-04-30T05:19:38.684Z,9.39
2023-04-30T05:20:38.717Z,9.43
2023-04-30T05:21:38.673Z,9.47
2023-04-30T05:22:38.670Z,9.47
2023-04-30T05:23:38.692Z,9.54
2023-04-30T05:24:38.682Z,9.56
2023-04-30T05:25:38.600Z,9.59
2023-04-30T05:26:38.685Z,9.64
2023-04-30T05:27:38.580Z,9.66
2023-04-30T05:28:38.573Z,9.68
2023-04-30T05:29:38.571Z,9.69
2023-04-30T05:30:38.605Z,9.74
2023-04-30T05:31:38.591Z,9.76
2023-04-30T05:32:38.618Z,9.79
2023-04-30T05:33:38.544Z,9.80
2023-04-30T05:34:38.517Z,9.80
2023-04-30T05:35:38.569Z,9.86
2023-04-30T05:36:38.499Z,9.89
2023-04-30T05:37:38.504Z,9.87
2023-04-30T05:38:38.926Z,9.91
2023-04-30T05:39:38.483Z,9.91
2023-04-30T05:40:38.455Z,9.94
2023-04-30T05:41:38.444Z,9.95
2023-04-30T05:42:38.421Z,9.98
2023-04-30T05:43:38.421Z,10.01
2023-04-30T05:44:38.422Z,10.04
2023-04-30T05:45:38.470Z,10.02
2023-04-30T05:46:38.406Z,10.04
2023-04-30T05:47:38.431Z,10.02
2023-04-30T05:48:38.383Z,10.07
2023-04-30T05:49:38.423Z,10.09
2023-04-30T05:50:38.367Z,10.09
2023-04-30T05:51:38.355Z,10.12
2023-04-30T05:52:38.335Z,10.10
2023-04-30T05:53:38.335Z,10.15
2023-04-30T05:54:38.317Z,10.16
2023-04-30T05:55:38.329Z,10.19
2023-04-30T05:56:38.318Z,10.23
2023-04-30T05:57:38.291Z,10.23
2023-04-30T05:58:38.293Z,10.25
2023-04-30T05:59:38.274Z,10.26
2023-04-30T06:00:38.275Z,10.28
2023-04-30T06:01:38.290Z,10.30
2023-04-30T06:02:38.376Z,10.30
2023-04-30T06:03:38.259Z,10.31
2023-04-30T06:04:38.204Z,10.34
2023-04-30T06:05:38.240Z,10.35
2023-04-30T06:06:38.281Z,10.41
2023-04-30T06:07:38.231Z,10.41
2023-04-30T06:08:38.172Z,10.44
2023-04-30T06:09:38.180Z,10.46
2023-04-30T06:10:38.155Z,10.48
2023-04-30T06:11:38.158Z,10.46
2023-04-30T06:12:38.174Z,10.49
2023-04-30T06:13:38.136Z,10.51
2023-04-30T06:14:38.125Z,10.49
2023-04-30T06:15:38.126Z,10.51
2023-04-30T06:16:38.120Z,10.53
2023-04-30T06:17:38.135Z,10.54
2023-04-30T06:18:38.125Z,10.54
2023-04-30T06:19:38.074Z,10.57
2023-04-30T06:20:38.054Z,10.57
2023-04-30T06:21:38.035Z,10.57
2023-04-30T06:22:38.028Z,10.57
2023-04-30T06:23:38.038Z,10.57
2023-04-30T06:24:38.052Z,10.60
2023-04-30T06:25:38.016Z,10.60
2023-04-30T06:26:39.036Z,10.61
2023-04-30T06:27:38.001Z,10.64
2023-04-30T06:28:37.959Z,10.60
2023-04-30T06:29:37.978Z,10.61
2023-04-30T06:30:37.975Z,10.63
2023-04-30T06:31:37.965Z,10.64
2023-04-30T06:32:37.951Z,10.64
2023-04-30T06:33:37.915Z,10.67
2023-04-30T06:34:37.909Z,10.67
2023-04-30T06:35:37.919Z,10.69
2023-04-30T06:36:37.904Z,10.74
2023-04-30T06:37:38.211Z,10.74
2023-04-30T06:38:37.871Z,10.75
2023-04-30T06:39:37.864Z,10.76
2023-04-30T06:40:37.875Z,10.79
2023-04-30T06:41:37.861Z,10.82
2023-04-30T06:42:37.845Z,10.84
2023-04-30T06:43:37.837Z,10.86
2023-04-30T06:44:37.807Z,10.90
2023-04-30T06:45:37.846Z,10.94
2023-04-30T06:46:37.906Z,10.99
2023-04-30T06:47:37.941Z,11.02
2023-04-30T06:48:37.764Z,11.07
2023-04-30T06:49:37.750Z,11.08
2023-04-30T06:50:37.734Z,11.10
2023-04-30T06:51:37.751Z,11.10
2023-04-30T06:52:37.739Z,11.11
2023-04-30T06:53:37.740Z,11.14
2023-04-30T06:54:37.718Z,11.19
2023-04-30T06:55:37.713Z,11.23
2023-04-30T06:56:37.731Z,11.26
2023-04-30T06:57:37.755Z,11.29
2023-04-30T06:58:37.686Z,11.30
2023-04-30T06:59:37.680Z,11.32
2023-04-30T07:00:37.646Z,11.35
2023-04-30T07:01:37.641Z,11.36
2023-04-30T07:02:37.724Z,11.36
2023-04-30T07:03:37.748Z,11.36
2023-04-30T07:04:37.614Z,11.37
2023-04-30T07:05:37.603Z,11.37
2023-04-30T07:06:37.645Z,11.37
2023-04-30T07:07:37.578Z,11.37
2023-04-30T07:08:37.624Z,11.37
2023-04-30T07:09:37.574Z,11.37
2023-04-30T07:10:37.565Z,11.35
2023-04-30T07:11:37.551Z,11.36
2023-04-30T07:12:37.531Z,11.32
2023-04-30T07:13:37.518Z,11.30
2023-04-30T07:14:37.543Z,11.35
2023-04-30T07:15:37.534Z,11.37
2023-04-30T07:16:37.470Z,11.40
2023-04-30T07:17:37.485Z,11.40
2023-04-30T07:18:37.462Z,11.44
2023-04-30T07:19:37.449Z,11.45
2023-04-30T07:20:37.496Z,11.48
2023-04-30T07:21:37.435Z,11.51
2023-04-30T07:22:37.419Z,11.52
2023-04-30T07:23:37.414Z,11.55
2023-04-30T07:24:37.410Z,11.60
2023-04-30T07:25:37.403Z,11.63
2023-04-30T07:26:37.431Z,11.65
2023-04-30T07:27:37.390Z,11.68
2023-04-30T07:28:37.354Z,11.69
2023-04-30T07:29:37.343Z,11.73
2023-04-30T07:30:37.344Z,11.75
2023-04-30T07:31:37.382Z,11.81
2023-04-30T07:32:37.388Z,11.83
2023-04-30T07:33:37.320Z,11.81
2023-04-30T07:34:37.310Z,11.83
2023-04-30T07:35:37.284Z,11.84
2023-04-30T07:36:37.313Z,11.87
2023-04-30T07:37:39.083Z,11.88
2023-04-30T07:38:37.297Z,11.95
2023-04-30T07:39:37.269Z,11.99
2023-04-30T07:40:37.295Z,12.02
2023-04-30T07:41:37.243Z,12.06
2023-04-30T07:42:37.630Z,12.07
2023-04-30T07:43:37.210Z,12.09
2023-04-30T07:44:37.198Z,12.10
2023-04-30T07:45:37.194Z,12.12
2023-04-30T07:46:37.206Z,12.17
2023-04-30T07:47:37.243Z,12.17
2023-04-30T07:48:37.186Z,12.20
2023-04-30T07:49:37.168Z,12.21
2023-04-30T07:50:37.197Z,12.25
2023-04-30T07:51:37.130Z,12.28
2023-04-30T07:52:37.128Z,12.35
2023-04-30T07:53:37.123Z,12.37
2023-04-30T07:54:37.144Z,12.40
2023-04-30T07:55:37.086Z,12.46
2023-04-30T07:56:37.071Z,12.50
2023-04-30T07:57:37.065Z,12.55
2023-04-30T07:58:37.052Z,12.58
2023-04-30T07:59:37.081Z,12.61
2023-04-30T08:00:37.037Z,12.62
2023-04-30T08:01:37.094Z,12.67
2023-04-30T08:02:37.164Z,12.70
2023-04-30T08:03:37.087Z,12.75
2023-04-30T08:04:36.982Z,12.78
2023-04-30T08:05:37.007Z,12.83
2023-04-30T08:06:37.024Z,12.86
2023-04-30T08:07:36.967Z,12.93
2023-04-30T08:08:36.962Z,12.97
2023-04-30T08:09:36.948Z,13.03
2023-04-30T08:10:36.925Z,13.09
2023-04-30T08:11:36.957Z,13.09
2023-04-30T08:12:36.913Z,13.12
2023-04-30T08:13:36.910Z,13.15
2023-04-30T08:14:36.912Z,13.18
2023-04-30T08:15:36.899Z,13.23
2023-04-30T08:16:36.911Z,13.27
2023-04-30T08:17:36.956Z,13.30
2023-04-30T08:18:36.864Z,13.31
2023-04-30T08:19:36.869Z,13.37
2023-04-30T08:20:38.564Z,13.41
2023-04-30T08:21:36.815Z,13.46
2023-04-30T08:22:36.794Z,13.52
2023-04-30T08:23:37.366Z,13.54
2023-04-30T08:24:36.783Z,13.59
2023-04-30T08:25:36.776Z,13.62
2023-04-30T08:26:36.756Z,13.63
2023-04-30T08:27:36.757Z,13.68
2023-04-30T08:28:36.758Z,13.68
2023-04-30T08:29:36.784Z,13.71
2023-04-30T08:30:36.742Z,13.75
2023-04-30T08:31:36.791Z,13.79
2023-04-30T08:32:36.739Z,13.86
2023-04-30T08:33:36.704Z,13.89
2023-04-30T08:34:36.710Z,13.90
2023-04-30T08:35:36.688Z,13.93
2023-04-30T08:36:36.671Z,13.95
2023-04-30T08:37:36.672Z,13.97
2023-04-30T08:38:36.650Z,14.03
2023-04-30T08:39:36.650Z,14.07
2023-04-30T08:40:50.327Z,14.11
2023-04-30T08:41:36.688Z,14.14
2023-04-30T08:42:36.611Z,14.17
2023-04-30T08:43:36.618Z,14.22
2023-04-30T08:44:36.571Z,14.26
2023-04-30T08:45:36.577Z,14.29
2023-04-30T08:46:36.587Z,14.35
2023-04-30T08:47:36.693Z,14.44
2023-04-30T08:48:36.532Z,14.47
2023-04-30T08:49:36.529Z,14.50
2023-04-30T08:50:36.509Z,14.51
2023-04-30T08:51:36.534Z,14.51
2023-04-30T08:52:36.509Z,14.50
2023-04-30T08:53:36.500Z,14.51
2023-04-30T08:54:36.488Z,14.55
2023-04-30T08:55:36.486Z,14.59
2023-04-30T08:56:36.478Z,14.58
2023-04-30T08:57:36.482Z,14.58
2023-04-30T08:58:36.460Z,14.59
2023-04-30T08:59:36.456Z,14.62
2023-04-30T09:00:36.406Z,14.66
2023-04-30T09:01:36.480Z,14.68
2023-04-30T09:02:36.515Z,14.72
2023-04-30T09:03:36.507Z,14.73
2023-04-30T09:04:36.384Z,14.77
2023-04-30T09:05:36.357Z,14.81
2023-04-30T09:06:36.397Z,14.82
2023-04-30T09:07:36.353Z,14.84
2023-04-30T09:08:36.379Z,14.85
2023-04-30T09:09:36.346Z,14.88
2023-04-30T09:10:36.336Z,14.89
2023-04-30T09:11:36.322Z,14.91
2023-04-30T09:12:36.312Z,14.94
2023-04-30T09:13:36.287Z,14.96
2023-04-30T09:14:36.322Z,14.99
2023-04-30T09:15:36.329Z,15.02
2023-04-30T09:16:36.316Z,15.06
2023-04-30T09:17:36.275Z,15.07
2023-04-30T09:18:36.401Z,15.06
2023-04-30T09:19:36.717Z,15.09
2023-04-30T09:20:36.231Z,15.09
2023-04-30T09:21:36.203Z,15.11
2023-04-30T09:22:36.204Z,15.15
2023-04-30T09:23:36.190Z,15.18
2023-04-30T09:24:36.187Z,15.22
2023-04-30T09:25:36.198Z,15.27
2023-04-30T09:26:36.235Z,15.29
2023-04-30T09:27:36.162Z,15.31
2023-04-30T09:28:36.136Z,15.36
2023-04-30T09:29:36.125Z,15.40
2023-04-30T09:30:36.123Z,15.40
2023-04-30T09:31:36.185Z,15.42
2023-04-30T09:32:36.147Z,15.43
2023-04-30T09:33:36.082Z,15.44
2023-04-30T09:34:36.079Z,15.47
2023-04-30T09:35:36.070Z,15.52
2023-04-30T09:36:36.159Z,15.55
2023-04-30T09:37:36.042Z,15.58
2023-04-30T09:38:36.053Z,15.59
2023-04-30T09:39:36.020Z,15.64
2023-04-30T09:40:36.013Z,15.67
2023-04-30T09:41:36.005Z,15.70
2023-04-30T09:42:36.015Z,15.72
2023-04-30T09:43:35.992Z,15.68
2023-04-30T09:44:35.969Z,15.70
2023-04-30T09:45:35.956Z,15.72
2023-04-30T09:46:36.009Z,15.77
2023-04-30T09:47:35.963Z,15.82
2023-04-30T09:48:36.006Z,15.86
2023-04-30T09:49:35.918Z,15.94
2023-04-30T09:50:35.917Z,15.97
2023-04-30T09:51:35.906Z,16.01
2023-04-30T09:52:35.895Z,16.04
2023-04-30T09:53:35.892Z,16.09
2023-04-30T09:54:35.912Z,16.10
2023-04-30T09:55:35.863Z,16.13
2023-04-30T09:56:35.836Z,16.15
2023-04-30T09:57:35.823Z,16.13
2023-04-30T09:58:35.819Z,16.09
2023-04-30T09:59:35.816Z,16.09
2023-04-30T10:00:35.831Z,16.10
2023-04-30T10:01:35.793Z,16.13
2023-04-30T10:02:35.796Z,16.16
2023-04-30T10:03:35.804Z,16.17
2023-04-30T10:04:35.783Z,16.20
2023-04-30T10:05:35.765Z,16.23
2023-04-30T10:06:35.881Z,16.26
2023-04-30T10:07:35.737Z,16.31
2023-04-30T10:08:35.725Z,16.31
2023-04-30T10:09:35.710Z,16.29
2023-04-30T10:10:35.698Z,16.33
2023-04-30T10:11:35.703Z,16.36
2023-04-30T10:12:35.717Z,16.38
2023-04-30T10:13:35.674Z,16.38
2023-04-30T10:14:35.665Z,16.31
2023-04-30T10:15:35.677Z,16.29
2023-04-30T10:16:35.731Z,16.24
2023-04-30T10:17:35.707Z,16.20
2023-04-30T10:18:35.653Z,16.17
2023-04-30T10:19:35.620Z,16.16
2023-04-30T10:20:35.600Z,16.16
2023-04-30T10:21:35.590Z,16.16
2023-04-30T10:22:35.573Z,16.15
2023-04-30T10:23:35.594Z,16.21
2023-04-30T10:24:35.561Z,16.23
2023-04-30T10:25:35.561Z,16.26
2023-04-30T10:26:35.569Z,16.31
2023-04-30T10:27:35.542Z,16.35
2023-04-30T10:28:35.550Z,16.38
2023-04-30T10:29:35.499Z,16.39
2023-04-30T10:30:35.504Z,16.38
2023-04-30T10:31:35.601Z,16.33
2023-04-30T10:32:35.514Z,16.32
2023-04-30T10:33:35.474Z,16.29
2023-04-30T10:34:35.463Z,16.20
2023-04-30T10:35:35.445Z,16.15
2023-04-30T10:36:35.438Z,16.15
2023-04-30T10:37:35.415Z,16.13
2023-04-30T10:38:35.432Z,16.12
2023-04-30T10:39:35.883Z,16.15
2023-04-30T10:40:35.401Z,16.20
2023-04-30T10:41:35.390Z,16.29
2023-04-30T10:42:35.393Z,16.33
2023-04-30T10:43:35.373Z,16.39
2023-04-30T10:44:35.388Z,16.42
2023-04-30T10:45:35.410Z,16.47
2023-04-30T10:46:35.365Z,16.51
2023-04-30T10:47:35.406Z,16.51
2023-04-30T10:48:35.317Z,16.51
2023-04-30T10:49:35.296Z,16.57
2023-04-30T10:50:35.369Z,16.66
2023-04-30T10:51:35.276Z,16.72
2023-04-30T10:52:35.285Z,16.76
2023-04-30T10:53:35.271Z,16.81
2023-04-30T10:54:35.263Z,16.81
2023-04-30T10:55:35.259Z,16.83
2023-04-30T10:56:35.444Z,16.83
2023-04-30T10:57:35.227Z,16.78
2023-04-30T10:58:35.236Z,16.74
2023-04-30T10:59:35.213Z,16.65
2023-04-30T11:00:35.202Z,16.64
2023-04-30T11:01:35.229Z,16.57
2023-04-30T11:02:35.230Z,16.51
2023-04-30T11:03:35.162Z,16.50
2023-04-30T11:04:35.186Z,16.46
2023-04-30T11:05:35.156Z,16.41
2023-04-30T11:06:35.159Z,16.39
2023-04-30T11:07:35.161Z,16.36
2023-04-30T11:08:35.120Z,16.33
2023-04-30T11:09:35.103Z,16.38
2023-04-30T11:10:35.087Z,16.38
2023-04-30T11:11:35.121Z,16.43
2023-04-30T11:12:35.102Z,16.50
2023-04-30T11:13:35.104Z,16.65
2023-04-30T11:14:35.058Z,16.76
2023-04-30T11:15:35.117Z,16.86
2023-04-30T11:16:35.245Z,16.90
2023-04-30T11:17:35.078Z,16.99
2023-04-30T11:18:35.006Z,17.08
2023-04-30T11:19:35.009Z,17.16
2023-04-30T11:20:34.991Z,17.22
2023-04-30T11:21:34.964Z,17.29
2023-04-30T11:22:34.972Z,17.30
2023-04-30T11:23:40.532Z,17.36
2023-04-30T11:24:34.990Z,17.41
2023-04-30T11:25:34.946Z,17.46
2023-04-30T11:26:34.938Z,17.51
2023-04-30T11:27:34.924Z,17.59
2023-04-30T11:28:34.925Z,17.68
2023-04-30T11:29:34.980Z,17.74
2023-04-30T11:30:34.944Z,17.78
2023-04-30T11:31:34.998Z,17.85
2023-04-30T11:32:34.941Z,17.92
2023-04-30T11:33:34.853Z,18.00
2023-04-30T11:34:34.844Z,18.07
2023-04-30T11:35:34.821Z,18.15
2023-04-30T11:36:34.842Z,18.16
2023-04-30T11:37:34.819Z,18.19
2023-04-30T11:38:34.794Z,18.16
2023-04-30T11:39:34.805Z,18.13
2023-04-30T11:40:34.799Z,18.08
2023-04-30T11:41:34.800Z,18.03
2023-04-30T11:42:34.909Z,18.00
2023-04-30T11:43:34.754Z,17.95
2023-04-30T11:44:34.740Z,17.95
2023-04-30T11:45:34.768Z,17.98
2023-04-30T11:46:34.765Z,18.03
2023-04-30T11:47:34.762Z,18.07
2023-04-30T11:48:34.733Z,18.11
2023-04-30T11:49:34.692Z,18.11
2023-04-30T11:50:34.702Z,18.15
2023-04-30T11:51:34.691Z,18.15
2023-04-30T11:52:34.679Z,18.15
2023-04-30T11:53:34.647Z,18.13
2023-04-30T11:54:34.661Z,18.08
2023-04-30T11:55:34.630Z,17.95
2023-04-30T11:56:34.618Z,17.90
2023-04-30T11:57:34.672Z,17.80
2023-04-30T11:58:34.601Z,17.80
2023-04-30T11:59:34.582Z,17.79
2023-04-30T12:00:34.590Z,17.82
2023-04-30T12:01:34.591Z,17.86
2023-04-30T12:02:34.640Z,17.92
2023-04-30T12:03:34.681Z,18.00
2023-04-30T12:04:34.568Z,18.03
2023-04-30T12:05:34.535Z,18.08
2023-04-30T12:06:34.572Z,18.18
2023-04-30T12:07:34.514Z,18.25
2023-04-30T12:08:34.529Z,18.29
2023-04-30T12:09:34.504Z,18.33
2023-04-30T12:10:34.492Z,18.35
2023-04-30T12:11:34.496Z,18.43
2023-04-30T12:12:34.459Z,18.50
2023-04-30T12:13:34.459Z,18.56
2023-04-30T12:14:34.429Z,18.62
2023-04-30T12:15:34.435Z,18.62
2023-04-30T12:16:34.419Z,18.65
2023-04-30T12:17:34.487Z,18.65
2023-04-30T12:18:34.409Z,18.71
2023-04-30T12:19:34.410Z,18.73
2023-04-30T12:20:34.397Z,18.75
2023-04-30T12:21:34.392Z,18.78
2023-04-30T12:22:34.350Z,18.78
2023-04-30T12:23:34.339Z,18.73
2023-04-30T12:24:34.333Z,18.70
2023-04-30T12:25:34.307Z,18.66
2023-04-30T12:26:34.314Z,18.63
2023-04-30T12:27:34.328Z,18.63
2023-04-30T12:28:34.299Z,18.66
2023-04-30T12:29:34.311Z,18.68
2023-04-30T12:30:34.281Z,18.71
2023-04-30T12:31:34.270Z,18.68
2023-04-30T12:32:34.279Z,18.68
2023-04-30T12:33:34.270Z,18.66
2023-04-30T12:34:34.241Z,18.68
2023-04-30T12:35:34.228Z,18.74
2023-04-30T12:36:34.255Z,18.80
2023-04-30T12:37:34.192Z,18.95
2023-04-30T12:38:34.177Z,19.02
2023-04-30T12:39:34.203Z,19.08
2023-04-30T12:40:34.170Z,19.11
2023-04-30T12:41:34.150Z,19.12
2023-04-30T12:42:34.146Z,19.11
2023-04-30T12:43:34.133Z,19.12
2023-04-30T12:44:34.548Z,19.15
2023-04-30T12:45:34.273Z,19.16
2023-04-30T12:46:34.161Z,19.16
2023-04-30T12:47:34.578Z,19.16
2023-04-30T12:48:34.095Z,19.12
2023-04-30T12:49:34.090Z,19.11
2023-04-30T12:50:34.081Z,19.08
2023-04-30T12:51:34.054Z,19.00
2023-04-30T12:52:34.062Z,18.96
2023-04-30T12:53:34.056Z,18.89
2023-04-30T12:54:34.046Z,18.78
2023-04-30T12:55:34.050Z,18.71
2023-04-30T12:56:34.017Z,18.68